sensor_id;sensor_type;location;lat;lon;timestamp;temperature;humidity
33067;DHT22;19428;49.024;8.366;2023-06-01T00:02:06;16.50;1.00
33067;DHT22;19428;49.024;8.366;2023-06-01T00:04:33;16.40;1.00
33067;DHT22;19428;49.024;8.366;2023-06-01T00:07:00;16.40;1.00
33067;DHT22;19428;49.024;8.366;2023-06-01T00:09:30;15.90;1.00
33067;DHT22;19428;49.024;8.366;2023-06-01T00:12:19;15.50;1.00
33067;DHT22;19428;49.024;8.366;2023-06-01T00:14:46;15.40;1.00
33067;DHT22;19428;49.024;8.366;2023-06-01T00:17:16;15.00;1.00
33067;DHT22;19428;49.024;8.366;2023-06-01T00:19:50;14.90;1.00
33067;DHT22;19428;49.024;8.366;2023-06-01T00:22:19;15.10;1.00
33067;DHT22;19428;49.024;8.366;2023-06-01T00:25:40;15.00;1.00
33067;DHT22;19428;49.024;8.366;2023-06-01T00:28:06;14.80;1.90
33067;DHT22;19428;49.024;8.366;2023-06-01T00:33:02;14.70;2.90
33067;DHT22;19428;49.024;8.366;2023-06-01T00:35:28;14.70;3.50
33067;DHT22;19428;49.024;8.366;2023-06-01T00:37:54;14.60;3.90
33067;DHT22;19428;49.024;8.366;2023-06-01T00:40:45;14.60;3.70
33067;DHT22;19428;49.024;8.366;2023-06-01T00:43:19;14.30;5.20
33067;DHT22;19428;49.024;8.366;2023-06-01T00:49:38;14.10;8.10
33067;DHT22;19428;49.024;8.366;2023-06-01T00:52:25;13.90;10.50
33067;DHT22;19428;49.024;8.366;2023-06-01T00:54:51;13.90;10.40
33067;DHT22;19428;49.024;8.366;2023-06-01T00:57:18;14.00;11.40
33067;DHT22;19428;49.024;8.366;2023-06-01T01:00:17;14.00;11.20
33067;DHT22;19428;49.024;8.366;2023-06-01T01:02:53;13.90;12.20
33067;DHT22;19428;49.024;8.366;2023-06-01T01:05:59;14.00;13.80
33067;DHT22;19428;49.024;8.366;2023-06-01T01:09:25;14.20;13.90
33067;DHT22;19428;49.024;8.366;2023-06-01T01:12:24;14.20;13.30
33067;DHT22;19428;49.024;8.366;2023-06-01T01:15:12;14.20;13.20
33067;DHT22;19428;49.024;8.366;2023-06-01T01:18:22;13.90;13.80
33067;DHT22;19428;49.024;8.366;2023-06-01T01:20:55;13.70;14.30
33067;DHT22;19428;49.024;8.366;2023-06-01T01:23:54;13.60;15.60
33067;DHT22;19428;49.024;8.366;2023-06-01T01:26:46;13.50;17.30
33067;DHT22;19428;49.024;8.366;2023-06-01T01:29:16;13.40;19.50
33067;DHT22;19428;49.024;8.366;2023-06-01T01:31:50;13.30;20.10
33067;DHT22;19428;49.024;8.366;2023-06-01T01:34:19;13.10;22.40
33067;DHT22;19428;49.024;8.366;2023-06-01T01:36:48;13.30;23.20
33067;DHT22;19428;49.024;8.366;2023-06-01T01:42:22;13.30;24.10
33067;DHT22;19428;49.024;8.366;2023-06-01T01:45:11;13.20;25.50
33067;DHT22;19428;49.024;8.366;2023-06-01T01:51:26;13.60;26.40
33067;DHT22;19428;49.024;8.366;2023-06-01T01:54:10;13.50;25.30
33067;DHT22;19428;49.024;8.366;2023-06-01T01:57:00;13.40;26.90
33067;DHT22;19428;49.024;8.366;2023-06-01T01:59:34;13.60;26.60
33067;DHT22;19428;49.024;8.366;2023-06-01T02:02:00;13.80;26.10
33067;DHT22;19428;49.024;8.366;2023-06-01T02:06:51;14.10;25.40
33067;DHT22;19428;49.024;8.366;2023-06-01T02:09:44;14.10;25.10
33067;DHT22;19428;49.024;8.366;2023-06-01T02:12:34;14.10;25.30
33067;DHT22;19428;49.024;8.366;2023-06-01T02:15:00;14.00;25.20
33067;DHT22;19428;49.024;8.366;2023-06-01T02:17:41;13.80;25.60
33067;DHT22;19428;49.024;8.366;2023-06-01T02:20:32;13.50;26.50
33067;DHT22;19428;49.024;8.366;2023-06-01T02:28:44;13.60;29.50
33067;DHT22;19428;49.024;8.366;2023-06-01T02:32:13;13.60;29.60
33067;DHT22;19428;49.024;8.366;2023-06-01T02:34:55;13.50;29.70
33067;DHT22;19428;49.024;8.366;2023-06-01T02:37:43;13.60;30.60
33067;DHT22;19428;49.024;8.366;2023-06-01T02:40:13;13.60;30.60
33067;DHT22;19428;49.024;8.366;2023-06-01T02:42:42;13.50;31.10
33067;DHT22;19428;49.024;8.366;2023-06-01T02:45:26;13.50;32.30
33067;DHT22;19428;49.024;8.366;2023-06-01T02:48:20;13.60;32.50
33067;DHT22;19428;49.024;8.366;2023-06-01T02:50:45;13.60;32.80
33067;DHT22;19428;49.024;8.366;2023-06-01T02:53:16;13.60;32.90
33067;DHT22;19428;49.024;8.366;2023-06-01T02:55:45;13.60;32.30
33067;DHT22;19428;49.024;8.366;2023-06-01T02:58:11;13.50;34.90
33067;DHT22;19428;49.024;8.366;2023-06-01T03:00:43;13.40;34.30
33067;DHT22;19428;49.024;8.366;2023-06-01T03:03:31;13.20;35.70
33067;DHT22;19428;49.024;8.366;2023-06-01T03:06:12;13.30;39.50
33067;DHT22;19428;49.024;8.366;2023-06-01T03:08:40;13.40;40.90
33067;DHT22;19428;49.024;8.366;2023-06-01T03:11:06;13.40;42.90
33067;DHT22;19428;49.024;8.366;2023-06-01T03:13:32;13.50;44.60
33067;DHT22;19428;49.024;8.366;2023-06-01T03:16:20;13.50;42.90
33067;DHT22;19428;49.024;8.366;2023-06-01T03:19:16;13.50;44.00
33067;DHT22;19428;49.024;8.366;2023-06-01T03:21:57;13.40;45.00
33067;DHT22;19428;49.024;8.366;2023-06-01T03:24:49;13.40;45.40
33067;DHT22;19428;49.024;8.366;2023-06-01T03:27:47;13.40;47.40
33067;DHT22;19428;49.024;8.366;2023-06-01T03:30:24;13.40;48.20
33067;DHT22;19428;49.024;8.366;2023-06-01T03:33:34;13.30;48.90
33067;DHT22;19428;49.024;8.366;2023-06-01T03:36:53;13.20;51.00
33067;DHT22;19428;49.024;8.366;2023-06-01T03:39:25;13.30;51.50
33067;DHT22;19428;49.024;8.366;2023-06-01T03:41:51;13.30;52.90
33067;DHT22;19428;49.024;8.366;2023-06-01T03:44:16;13.30;53.70
33067;DHT22;19428;49.024;8.366;2023-06-01T03:46:43;13.20;54.10
33067;DHT22;19428;49.024;8.366;2023-06-01T03:49:45;13.20;52.80
33067;DHT22;19428;49.024;8.366;2023-06-01T03:52:14;13.10;52.60
33067;DHT22;19428;49.024;8.366;2023-06-01T03:54:50;13.00;53.30
33067;DHT22;19428;49.024;8.366;2023-06-01T03:57:37;13.10;52.80
33067;DHT22;19428;49.024;8.366;2023-06-01T04:00:25;13.30;51.90
33067;DHT22;19428;49.024;8.366;2023-06-01T04:03:04;13.40;50.20
33067;DHT22;19428;49.024;8.366;2023-06-01T04:05:44;13.60;48.60
33067;DHT22;19428;49.024;8.366;2023-06-01T04:08:16;13.70;48.10
33067;DHT22;19428;49.024;8.366;2023-06-01T04:10:55;13.90;46.70
33067;DHT22;19428;49.024;8.366;2023-06-01T04:16:45;14.20;43.40
33067;DHT22;19428;49.024;8.366;2023-06-01T04:19:14;14.50;41.20
33067;DHT22;19428;49.024;8.366;2023-06-01T04:22:00;14.40;38.30
33067;DHT22;19428;49.024;8.366;2023-06-01T04:24:56;14.40;39.30
33067;DHT22;19428;49.024;8.366;2023-06-01T04:27:43;14.50;38.20
33067;DHT22;19428;49.024;8.366;2023-06-01T04:30:36;14.70;37.60
33067;DHT22;19428;49.024;8.366;2023-06-01T04:33:18;14.60;36.10
33067;DHT22;19428;49.024;8.366;2023-06-01T04:36:42;14.90;35.60
33067;DHT22;19428;49.024;8.366;2023-06-01T04:41:52;15.00;32.60
33067;DHT22;19428;49.024;8.366;2023-06-01T04:45:35;15.10;33.10
33067;DHT22;19428;49.024;8.366;2023-06-01T04:48:48;15.30;32.40
33067;DHT22;19428;49.024;8.366;2023-06-01T04:52:09;15.30;31.00
33067;DHT22;19428;49.024;8.366;2023-06-01T04:58:49;15.60;30.30
33067;DHT22;19428;49.024;8.366;2023-06-01T05:03:59;15.80;29.40
33067;DHT22;19428;49.024;8.366;2023-06-01T05:06:44;15.80;28.80
33067;DHT22;19428;49.024;8.366;2023-06-01T05:09:28;16.10;29.10
33067;DHT22;19428;49.024;8.366;2023-06-01T05:12:00;15.70;29.30
33067;DHT22;19428;49.024;8.366;2023-06-01T05:14:47;16.10;30.30
33067;DHT22;19428;49.024;8.366;2023-06-01T05:17:21;15.80;29.30
33067;DHT22;19428;49.024;8.366;2023-06-01T05:20:18;16.10;28.40
33067;DHT22;19428;49.024;8.366;2023-06-01T05:22:49;16.50;28.50
33067;DHT22;19428;49.024;8.366;2023-06-01T05:29:01;16.20;26.90
33067;DHT22;19428;49.024;8.366;2023-06-01T05:31:30;16.50;27.80
33067;DHT22;19428;49.024;8.366;2023-06-01T05:33:57;16.80;27.10
33067;DHT22;19428;49.024;8.366;2023-06-01T05:36:26;16.90;26.20
33067;DHT22;19428;49.024;8.366;2023-06-01T05:38:53;17.00;24.70
33067;DHT22;19428;49.024;8.366;2023-06-01T05:41:21;17.00;26.30
33067;DHT22;19428;49.024;8.366;2023-06-01T05:43:47;16.90;23.90
33067;DHT22;19428;49.024;8.366;2023-06-01T05:46:55;16.70;24.60
33067;DHT22;19428;49.024;8.366;2023-06-01T05:49:21;17.10;26.40
33067;DHT22;19428;49.024;8.366;2023-06-01T05:52:24;17.00;24.50
33067;DHT22;19428;49.024;8.366;2023-06-01T05:54:52;17.20;23.70
33067;DHT22;19428;49.024;8.366;2023-06-01T05:57:20;17.60;23.70
33067;DHT22;19428;49.024;8.366;2023-06-01T05:59:53;18.10;21.40
33067;DHT22;19428;49.024;8.366;2023-06-01T06:02:22;18.40;19.00
33067;DHT22;19428;49.024;8.366;2023-06-01T06:04:56;18.20;20.10
33067;DHT22;19428;49.024;8.366;2023-06-01T06:07:54;18.50;20.30
33067;DHT22;19428;49.024;8.366;2023-06-01T06:10:29;18.90;18.50
33067;DHT22;19428;49.024;8.366;2023-06-01T06:13:41;18.90;16.20
33067;DHT22;19428;49.024;8.366;2023-06-01T06:16:07;19.20;16.20
33067;DHT22;19428;49.024;8.366;2023-06-01T06:18:38;19.00;14.30
33067;DHT22;19428;49.024;8.366;2023-06-01T06:21:28;18.80;15.80
33067;DHT22;19428;49.024;8.366;2023-06-01T06:27:08;19.80;14.20
33067;DHT22;19428;49.024;8.366;2023-06-01T06:29:42;19.70;12.50
33067;DHT22;19428;49.024;8.366;2023-06-01T06:32:10;19.50;10.20
33067;DHT22;19428;49.024;8.366;2023-06-01T06:34:39;19.60;12.00
33067;DHT22;19428;49.024;8.366;2023-06-01T06:37:05;20.20;10.60
33067;DHT22;19428;49.024;8.366;2023-06-01T06:39:58;20.20;10.50
33067;DHT22;19428;49.024;8.366;2023-06-01T06:47:34;19.80;9.30
33067;DHT22;19428;49.024;8.366;2023-06-01T06:50:01;19.50;5.20
33067;DHT22;19428;49.024;8.366;2023-06-01T06:52:57;19.40;5.30
33067;DHT22;19428;49.024;8.366;2023-06-01T06:55:27;19.50;3.70
33067;DHT22;19428;49.024;8.366;2023-06-01T06:58:17;19.50;6.10
33067;DHT22;19428;49.024;8.366;2023-06-01T07:00:43;20.00;4.40
33067;DHT22;19428;49.024;8.366;2023-06-01T07:03:19;20.10;1.00
33067;DHT22;19428;49.024;8.366;2023-06-01T07:05:46;20.20;1.00
33067;DHT22;19428;49.024;8.366;2023-06-01T07:08:21;20.10;1.00
33067;DHT22;19428;49.024;8.366;2023-06-01T07:10:58;19.90;1.00
33067;DHT22;19428;49.024;8.366;2023-06-01T07:13:25;20.80;1.00
33067;DHT22;19428;49.024;8.366;2023-06-01T07:15:59;20.70;1.00
33067;DHT22;19428;49.024;8.366;2023-06-01T07:18:48;20.40;1.00
33067;DHT22;19428;49.024;8.366;2023-06-01T07:21:17;20.80;1.00
33067;DHT22;19428;49.024;8.366;2023-06-01T07:24:13;20.70;1.00
33067;DHT22;19428;49.024;8.366;2023-06-01T07:26:45;20.40;1.00
33067;DHT22;19428;49.024;8.366;2023-06-01T07:29:11;20.40;1.00
33067;DHT22;19428;49.024;8.366;2023-06-01T07:31:40;20.50;1.00
33067;DHT22;19428;49.024;8.366;2023-06-01T07:36:55;21.60;1.00
33067;DHT22;19428;49.024;8.366;2023-06-01T07:41:51;20.60;1.00
33067;DHT22;19428;49.024;8.366;2023-06-01T07:44:45;21.30;1.00
33067;DHT22;19428;49.024;8.366;2023-06-01T07:47:36;21.20;1.00
33067;DHT22;19428;49.024;8.366;2023-06-01T07:50:11;21.50;1.00
33067;DHT22;19428;49.024;8.366;2023-06-01T08:00:34;21.20;1.00
33067;DHT22;19428;49.024;8.366;2023-06-01T08:03:06;21.00;1.00
33067;DHT22;19428;49.024;8.366;2023-06-01T08:05:49;21.70;1.00
33067;DHT22;19428;49.024;8.366;2023-06-01T08:08:16;22.10;1.00
33067;DHT22;19428;49.024;8.366;2023-06-01T08:11:03;21.90;1.00
33067;DHT22;19428;49.024;8.366;2023-06-01T08:13:29;21.90;1.00
33067;DHT22;19428;49.024;8.366;2023-06-01T08:15:54;22.50;1.00
33067;DHT22;19428;49.024;8.366;2023-06-01T08:18:41;22.20;1.00
33067;DHT22;19428;49.024;8.366;2023-06-01T08:21:12;22.20;1.00
33067;DHT22;19428;49.024;8.366;2023-06-01T08:23:41;22.30;1.00
33067;DHT22;19428;49.024;8.366;2023-06-01T08:26:07;21.90;1.00
33067;DHT22;19428;49.024;8.366;2023-06-01T08:29:03;21.70;1.00
33067;DHT22;19428;49.024;8.366;2023-06-01T08:31:30;22.20;1.00
33067;DHT22;19428;49.024;8.366;2023-06-01T08:34:07;22.10;1.00
33067;DHT22;19428;49.024;8.366;2023-06-01T08:36:33;22.10;1.00
33067;DHT22;19428;49.024;8.366;2023-06-01T08:39:42;22.00;1.00
33067;DHT22;19428;49.024;8.366;2023-06-01T08:45:22;22.70;1.00
33067;DHT22;19428;49.024;8.366;2023-06-01T08:47:53;22.50;1.00
33067;DHT22;19428;49.024;8.366;2023-06-01T08:50:22;22.70;1.00
33067;DHT22;19428;49.024;8.366;2023-06-01T08:52:54;22.50;1.00
33067;DHT22;19428;49.024;8.366;2023-06-01T08:55:28;22.50;1.00
33067;DHT22;19428;49.024;8.366;2023-06-01T08:58:05;22.50;1.00
33067;DHT22;19428;49.024;8.366;2023-06-01T09:00:55;23.20;1.00
33067;DHT22;19428;49.024;8.366;2023-06-01T09:03:22;22.80;1.00
33067;DHT22;19428;49.024;8.366;2023-06-01T09:05:50;22.90;1.00
33067;DHT22;19428;49.024;8.366;2023-06-01T09:08:44;23.20;1.00
33067;DHT22;19428;49.024;8.366;2023-06-01T09:11:11;22.70;1.00
33067;DHT22;19428;49.024;8.366;2023-06-01T09:13:40;22.90;1.00
33067;DHT22;19428;49.024;8.366;2023-06-01T09:19:21;23.20;1.00
33067;DHT22;19428;49.024;8.366;2023-06-01T09:22:11;23.20;1.00
33067;DHT22;19428;49.024;8.366;2023-06-01T09:25:31;23.60;1.00
33067;DHT22;19428;49.024;8.366;2023-06-01T09:28:01;23.80;1.00
33067;DHT22;19428;49.024;8.366;2023-06-01T09:30:55;23.60;1.00
33067;DHT22;19428;49.024;8.366;2023-06-01T09:33:24;23.40;1.00
33067;DHT22;19428;49.024;8.366;2023-06-01T09:35:54;23.40;1.00
33067;DHT22;19428;49.024;8.366;2023-06-01T09:38:29;23.70;1.00
33067;DHT22;19428;49.024;8.366;2023-06-01T09:42:07;24.10;1.00
33067;DHT22;19428;49.024;8.366;2023-06-01T09:44:41;24.00;1.00
33067;DHT22;19428;49.024;8.366;2023-06-01T09:47:09;23.40;1.00
33067;DHT22;19428;49.024;8.366;2023-06-01T09:49:41;24.00;1.00
33067;DHT22;19428;49.024;8.366;2023-06-01T09:52:08;23.90;1.00
33067;DHT22;19428;49.024;8.366;2023-06-01T09:54:39;23.80;1.00
33067;DHT22;19428;49.024;8.366;2023-06-01T09:57:06;24.00;1.00
33067;DHT22;19428;49.024;8.366;2023-06-01T09:59:46;24.20;1.00
33067;DHT22;19428;49.024;8.366;2023-06-01T10:02:21;24.30;1.00
33067;DHT22;19428;49.024;8.366;2023-06-01T10:04:55;24.70;1.00
33067;DHT22;19428;49.024;8.366;2023-06-01T10:07:27;24.60;1.00
33067;DHT22;19428;49.024;8.366;2023-06-01T10:09:58;24.30;1.00
33067;DHT22;19428;49.024;8.366;2023-06-01T10:12:27;24.40;1.00
33067;DHT22;19428;49.024;8.366;2023-06-01T10:15:22;24.90;1.00
33067;DHT22;19428;49.024;8.366;2023-06-01T10:17:49;24.40;1.00
33067;DHT22;19428;49.024;8.366;2023-06-01T10:20:15;24.70;1.00
33067;DHT22;19428;49.024;8.366;2023-06-01T10:22:42;24.90;1.00
33067;DHT22;19428;49.024;8.366;2023-06-01T10:25:10;25.10;1.00
33067;DHT22;19428;49.024;8.366;2023-06-01T10:27:44;25.00;1.00
33067;DHT22;19428;49.024;8.366;2023-06-01T10:30:16;24.80;1.00
33067;DHT22;19428;49.024;8.366;2023-06-01T10:32:51;24.90;1.00
33067;DHT22;19428;49.024;8.366;2023-06-01T10:40:43;25.60;1.00
33067;DHT22;19428;49.024;8.366;2023-06-01T10:43:40;24.90;1.00
33067;DHT22;19428;49.024;8.366;2023-06-01T10:48:57;24.90;1.00
33067;DHT22;19428;49.024;8.366;2023-06-01T10:51:23;25.30;1.00
33067;DHT22;19428;49.024;8.366;2023-06-01T10:53:53;25.60;1.00
33067;DHT22;19428;49.024;8.366;2023-06-01T10:56:26;25.90;1.00
33067;DHT22;19428;49.024;8.366;2023-06-01T11:01:44;25.80;1.00
33067;DHT22;19428;49.024;8.366;2023-06-01T11:04:10;26.00;1.00
33067;DHT22;19428;49.024;8.366;2023-06-01T11:06:40;26.00;1.00
33067;DHT22;19428;49.024;8.366;2023-06-01T11:09:08;26.20;1.00
33067;DHT22;19428;49.024;8.366;2023-06-01T11:14:18;26.40;1.00
33067;DHT22;19428;49.024;8.366;2023-06-01T11:16:44;26.30;1.00
33067;DHT22;19428;49.024;8.366;2023-06-01T11:19:10;26.40;1.00
33067;DHT22;19428;49.024;8.366;2023-06-01T11:21:43;26.70;1.00
33067;DHT22;19428;49.024;8.366;2023-06-01T11:26:43;26.70;1.00
33067;DHT22;19428;49.024;8.366;2023-06-01T11:29:19;26.50;1.00
33067;DHT22;19428;49.024;8.366;2023-06-01T11:32:02;26.90;1.00
33067;DHT22;19428;49.024;8.366;2023-06-01T11:34:37;27.00;1.00
33067;DHT22;19428;49.024;8.366;2023-06-01T11:37:03;26.70;1.00
33067;DHT22;19428;49.024;8.366;2023-06-01T11:39:29;26.70;1.00
33067;DHT22;19428;49.024;8.366;2023-06-01T11:42:06;27.60;1.00
33067;DHT22;19428;49.024;8.366;2023-06-01T11:44:33;27.60;1.00
33067;DHT22;19428;49.024;8.366;2023-06-01T11:46:59;27.30;1.00
33067;DHT22;19428;49.024;8.366;2023-06-01T11:49:27;28.20;1.00
33067;DHT22;19428;49.024;8.366;2023-06-01T11:51:53;29.10;1.00
33067;DHT22;19428;49.024;8.366;2023-06-01T11:54:22;28.60;1.00
33067;DHT22;19428;49.024;8.366;2023-06-01T11:56:48;28.50;1.00
33067;DHT22;19428;49.024;8.366;2023-06-01T11:59:13;27.30;1.00
33067;DHT22;19428;49.024;8.366;2023-06-01T12:01:46;28.30;1.00
33067;DHT22;19428;49.024;8.366;2023-06-01T12:04:16;29.00;1.00
33067;DHT22;19428;49.024;8.366;2023-06-01T12:06:42;28.60;1.00
33067;DHT22;19428;49.024;8.366;2023-06-01T12:09:08;28.50;1.00
33067;DHT22;19428;49.024;8.366;2023-06-01T12:11:35;28.80;1.00
33067;DHT22;19428;49.024;8.366;2023-06-01T12:14:02;28.90;1.00
33067;DHT22;19428;49.024;8.366;2023-06-01T12:19:18;28.40;1.00
33067;DHT22;19428;49.024;8.366;2023-06-01T12:21:51;28.40;1.00
33067;DHT22;19428;49.024;8.366;2023-06-01T12:24:18;28.60;1.00
33067;DHT22;19428;49.024;8.366;2023-06-01T12:26:44;29.20;1.00
33067;DHT22;19428;49.024;8.366;2023-06-01T12:29:10;28.70;1.00
33067;DHT22;19428;49.024;8.366;2023-06-01T12:31:35;28.20;1.00
33067;DHT22;19428;49.024;8.366;2023-06-01T12:34:01;28.90;1.00
33067;DHT22;19428;49.024;8.366;2023-06-01T12:36:34;29.60;1.00
33067;DHT22;19428;49.024;8.366;2023-06-01T12:39:02;28.90;1.00
33067;DHT22;19428;49.024;8.366;2023-06-01T12:41:29;28.50;1.00
33067;DHT22;19428;49.024;8.366;2023-06-01T12:43:56;29.10;1.00
33067;DHT22;19428;49.024;8.366;2023-06-01T12:46:29;28.50;1.00
33067;DHT22;19428;49.024;8.366;2023-06-01T12:49:16;28.40;1.00
33067;DHT22;19428;49.024;8.366;2023-06-01T12:51:46;29.10;1.00
33067;DHT22;19428;49.024;8.366;2023-06-01T12:54:12;29.90;1.00
33067;DHT22;19428;49.024;8.366;2023-06-01T12:56:38;29.50;1.00
33067;DHT22;19428;49.024;8.366;2023-06-01T12:59:03;29.00;1.00
33067;DHT22;19428;49.024;8.366;2023-06-01T13:01:30;28.90;1.00
33067;DHT22;19428;49.024;8.366;2023-06-01T13:03:55;28.30;1.00
33067;DHT22;19428;49.024;8.366;2023-06-01T13:06:23;28.50;1.00
33067;DHT22;19428;49.024;8.366;2023-06-01T13:08:49;29.00;1.00
33067;DHT22;19428;49.024;8.366;2023-06-01T13:11:15;29.80;1.00
33067;DHT22;19428;49.024;8.366;2023-06-01T13:13:41;30.00;1.00
33067;DHT22;19428;49.024;8.366;2023-06-01T13:16:06;29.70;1.00
33067;DHT22;19428;49.024;8.366;2023-06-01T13:18:32;29.30;1.00
33067;DHT22;19428;49.024;8.366;2023-06-01T13:21:01;28.70;1.00
33067;DHT22;19428;49.024;8.366;2023-06-01T13:23:31;28.80;1.00
33067;DHT22;19428;49.024;8.366;2023-06-01T13:26:10;28.80;1.00
33067;DHT22;19428;49.024;8.366;2023-06-01T13:28:46;29.50;1.00
33067;DHT22;19428;49.024;8.366;2023-06-01T13:31:15;30.10;1.00
33067;DHT22;19428;49.024;8.366;2023-06-01T13:33:41;29.60;1.00
33067;DHT22;19428;49.024;8.366;2023-06-01T13:36:23;29.50;1.00
33067;DHT22;19428;49.024;8.366;2023-06-01T13:38:52;29.40;1.00
33067;DHT22;19428;49.024;8.366;2023-06-01T13:41:49;28.90;1.00
33067;DHT22;19428;49.024;8.366;2023-06-01T13:44:17;29.30;1.00
33067;DHT22;19428;49.024;8.366;2023-06-01T13:46:59;28.50;1.00
33067;DHT22;19428;49.024;8.366;2023-06-01T13:49:30;28.90;1.00
33067;DHT22;19428;49.024;8.366;2023-06-01T13:51:58;29.70;1.00
33067;DHT22;19428;49.024;8.366;2023-06-01T13:54:28;28.50;1.00
33067;DHT22;19428;49.024;8.366;2023-06-01T13:56:57;28.90;1.00
33067;DHT22;19428;49.024;8.366;2023-06-01T13:59:41;29.10;1.00
33067;DHT22;19428;49.024;8.366;2023-06-01T14:02:06;29.30;1.00
33067;DHT22;19428;49.024;8.366;2023-06-01T14:04:34;29.40;1.00
33067;DHT22;19428;49.024;8.366;2023-06-01T14:07:00;29.50;1.00
33067;DHT22;19428;49.024;8.366;2023-06-01T14:09:27;29.80;1.00
33067;DHT22;19428;49.024;8.366;2023-06-01T14:11:53;28.80;1.00
33067;DHT22;19428;49.024;8.366;2023-06-01T14:14:19;29.70;1.00
33067;DHT22;19428;49.024;8.366;2023-06-01T14:16:50;30.30;1.00
33067;DHT22;19428;49.024;8.366;2023-06-01T14:19:17;29.70;1.00
33067;DHT22;19428;49.024;8.366;2023-06-01T14:22:07;29.00;1.00
33067;DHT22;19428;49.024;8.366;2023-06-01T14:24:53;29.30;1.00
33067;DHT22;19428;49.024;8.366;2023-06-01T14:27:19;29.50;1.00
33067;DHT22;19428;49.024;8.366;2023-06-01T14:29:48;29.80;1.00
33067;DHT22;19428;49.024;8.366;2023-06-01T14:32:15;30.30;1.00
33067;DHT22;19428;49.024;8.366;2023-06-01T14:34:43;29.80;1.00
33067;DHT22;19428;49.024;8.366;2023-06-01T14:37:10;29.80;1.00
33067;DHT22;19428;49.024;8.366;2023-06-01T14:39:48;29.20;1.00
33067;DHT22;19428;49.024;8.366;2023-06-01T14:42:18;29.60;1.00
33067;DHT22;19428;49.024;8.366;2023-06-01T14:44:44;30.00;1.00
33067;DHT22;19428;49.024;8.366;2023-06-01T14:47:11;29.60;1.00
33067;DHT22;19428;49.024;8.366;2023-06-01T14:49:46;30.00;1.00
33067;DHT22;19428;49.024;8.366;2023-06-01T14:52:16;30.00;1.00
33067;DHT22;19428;49.024;8.366;2023-06-01T14:54:43;30.20;1.00
33067;DHT22;19428;49.024;8.366;2023-06-01T14:57:13;29.60;1.00
33067;DHT22;19428;49.024;8.366;2023-06-01T14:59:40;29.70;1.00
33067;DHT22;19428;49.024;8.366;2023-06-01T15:02:12;30.30;1.00
33067;DHT22;19428;49.024;8.366;2023-06-01T15:04:39;30.00;1.00
33067;DHT22;19428;49.024;8.366;2023-06-01T15:07:28;29.80;1.00
33067;DHT22;19428;49.024;8.366;2023-06-01T15:09:57;29.80;1.00
33067;DHT22;19428;49.024;8.366;2023-06-01T15:12:24;29.50;1.00
33067;DHT22;19428;49.024;8.366;2023-06-01T15:14:56;29.30;1.00
33067;DHT22;19428;49.024;8.366;2023-06-01T15:17:21;29.50;1.00
33067;DHT22;19428;49.024;8.366;2023-06-01T15:19:56;29.80;1.00
33067;DHT22;19428;49.024;8.366;2023-06-01T15:22:23;29.60;1.00
33067;DHT22;19428;49.024;8.366;2023-06-01T15:24:49;29.70;1.00
33067;DHT22;19428;49.024;8.366;2023-06-01T15:27:20;29.40;1.00
33067;DHT22;19428;49.024;8.366;2023-06-01T15:29:49;29.00;1.00
33067;DHT22;19428;49.024;8.366;2023-06-01T15:32:16;29.10;1.00
33067;DHT22;19428;49.024;8.366;2023-06-01T15:34:53;28.60;1.00
33067;DHT22;19428;49.024;8.366;2023-06-01T15:37:21;29.30;1.00
33067;DHT22;19428;49.024;8.366;2023-06-01T15:39:51;29.30;1.00
33067;DHT22;19428;49.024;8.366;2023-06-01T15:42:44;29.40;1.00
33067;DHT22;19428;49.024;8.366;2023-06-01T15:45:53;29.50;1.00
33067;DHT22;19428;49.024;8.366;2023-06-01T15:48:22;29.20;1.00
33067;DHT22;19428;49.024;8.366;2023-06-01T15:51:07;29.10;1.00
33067;DHT22;19428;49.024;8.366;2023-06-01T15:53:36;29.10;1.00
33067;DHT22;19428;49.024;8.366;2023-06-01T15:56:02;29.10;1.00
33067;DHT22;19428;49.024;8.366;2023-06-01T15:58:47;29.30;1.00
33067;DHT22;19428;49.024;8.366;2023-06-01T16:01:19;29.10;1.00
33067;DHT22;19428;49.024;8.366;2023-06-01T16:03:47;29.40;1.00
33067;DHT22;19428;49.024;8.366;2023-06-01T16:06:12;29.40;1.00
33067;DHT22;19428;49.024;8.366;2023-06-01T16:08:38;29.50;1.00
33067;DHT22;19428;49.024;8.366;2023-06-01T16:11:07;28.80;1.00
33067;DHT22;19428;49.024;8.366;2023-06-01T16:13:43;29.00;1.00
33067;DHT22;19428;49.024;8.366;2023-06-01T16:18:47;29.50;1.00
33067;DHT22;19428;49.024;8.366;2023-06-01T16:21:14;28.50;1.00
33067;DHT22;19428;49.024;8.366;2023-06-01T16:23:55;28.70;1.00
33067;DHT22;19428;49.024;8.366;2023-06-01T16:26:26;29.00;1.00
33067;DHT22;19428;49.024;8.366;2023-06-01T16:29:01;28.60;1.00
33067;DHT22;19428;49.024;8.366;2023-06-01T16:31:42;28.60;1.00
33067;DHT22;19428;49.024;8.366;2023-06-01T16:34:09;28.50;1.00
33067;DHT22;19428;49.024;8.366;2023-06-01T16:36:35;28.50;1.00
33067;DHT22;19428;49.024;8.366;2023-06-01T16:39:01;28.40;1.00
33067;DHT22;19428;49.024;8.366;2023-06-01T16:41:31;28.20;1.00
33067;DHT22;19428;49.024;8.366;2023-06-01T16:44:05;28.30;1.00
33067;DHT22;19428;49.024;8.366;2023-06-01T16:46:32;28.30;1.00
33067;DHT22;19428;49.024;8.366;2023-06-01T16:49:07;28.10;1.00
33067;DHT22;19428;49.024;8.366;2023-06-01T16:51:33;28.20;1.00
33067;DHT22;19428;49.024;8.366;2023-06-01T16:54:30;28.20;1.00
33067;DHT22;19428;49.024;8.366;2023-06-01T16:56:56;28.60;1.00
33067;DHT22;19428;49.024;8.366;2023-06-01T16:59:22;28.00;1.00
33067;DHT22;19428;49.024;8.366;2023-06-01T17:02:09;27.70;1.00
33067;DHT22;19428;49.024;8.366;2023-06-01T17:04:37;27.80;1.00
33067;DHT22;19428;49.024;8.366;2023-06-01T17:07:03;27.70;1.00
33067;DHT22;19428;49.024;8.366;2023-06-01T17:09:29;27.50;1.00
33067;DHT22;19428;49.024;8.366;2023-06-01T17:11:55;27.80;1.00
33067;DHT22;19428;49.024;8.366;2023-06-01T17:14:22;27.50;1.00
33067;DHT22;19428;49.024;8.366;2023-06-01T17:16:51;27.90;1.00
33067;DHT22;19428;49.024;8.366;2023-06-01T17:19:17;27.90;1.00
33067;DHT22;19428;49.024;8.366;2023-06-01T17:21:43;27.80;1.00
33067;DHT22;19428;49.024;8.366;2023-06-01T17:24:09;27.70;1.00
33067;DHT22;19428;49.024;8.366;2023-06-01T17:26:35;27.70;1.00
33067;DHT22;19428;49.024;8.366;2023-06-01T17:29:00;27.60;1.00
33067;DHT22;19428;49.024;8.366;2023-06-01T17:31:26;27.40;1.00
33067;DHT22;19428;49.024;8.366;2023-06-01T17:33:51;27.20;1.00
33067;DHT22;19428;49.024;8.366;2023-06-01T17:36:17;26.90;1.00
33067;DHT22;19428;49.024;8.366;2023-06-01T17:38:43;26.70;1.00
33067;DHT22;19428;49.024;8.366;2023-06-01T17:41:11;26.70;1.00
33067;DHT22;19428;49.024;8.366;2023-06-01T17:43:37;26.80;1.00
33067;DHT22;19428;49.024;8.366;2023-06-01T17:46:03;26.70;1.00
33067;DHT22;19428;49.024;8.366;2023-06-01T17:48:31;26.70;1.00
33067;DHT22;19428;49.024;8.366;2023-06-01T17:50:59;26.50;1.00
33067;DHT22;19428;49.024;8.366;2023-06-01T17:53:25;26.70;1.00
33067;DHT22;19428;49.024;8.366;2023-06-01T17:55:51;26.60;1.00
33067;DHT22;19428;49.024;8.366;2023-06-01T17:58:17;26.80;1.00
33067;DHT22;19428;49.024;8.366;2023-06-01T18:00:43;26.60;1.00